Time;durP1;ratioP1;P1;durP2;ratioP2;P2;SDS_P1;SDS_P2;PMS_P1;PMS_P2;Temp;Humidity;BMP_temperature;BMP_pressure;BME280_temperature;BME280_humidity;BME280_pressure;Samples;Min_cycle;Max_cycle;Signal;HPM_P1;HPM_P2
2021/01/12 00:00:34;;;;;;;7.63;4.00;;;13.00;68.90;;;;;;5010893;28;20021;-74
2021/01/12 00:03:13;;;;;;;5.85;3.95;;;13.00;69.00;;;;;;5001292;28;20103;-73
2021/01/12 00:05:56;;;;;;;6.65;4.22;;;12.90;69.00;;;;;;5028367;28;20032;-74
2021/01/12 00:08:38;;;;;;;7.57;3.97;;;12.90;68.90;;;;;;5025365;28;20033;-74
2021/01/12 00:11:29;;;;;;;7.55;4.55;;;12.90;68.90;;;;;;5003990;28;20518;-73
2021/01/12 00:14:00;;;;;;;6.32;4.13;;;12.90;68.90;;;;;;5024541;28;20095;-74
2021/01/12 00:16:34;;;;;;;6.47;4.18;;;12.90;69.00;;;;;;5028071;28;20046;-73
2021/01/12 00:19:23;;;;;;;6.30;4.15;;;12.90;68.90;;;;;;5008580;28;20030;-74
2021/01/12 00:22:19;;;;;;;5.25;3.53;;;12.90;68.80;;;;;;5018234;28;20049;-74
2021/01/12 00:24:56;;;;;;;5.15;3.65;;;12.90;68.80;;;;;;5023695;28;20037;-73
2021/01/12 00:27:30;;;;;;;6.63;4.50;;;12.90;68.80;;;;;;5011322;28;20040;-74
2021/01/12 00:30:10;;;;;;;6.28;4.05;;;12.90;68.80;;;;;;5010153;28;20041;-74
2021/01/12 00:32:51;;;;;;;6.88;4.22;;;12.90;68.80;;;;;;5028477;28;20049;-73
2021/01/12 00:35:28;;;;;;;6.85;3.83;;;12.90;68.80;;;;;;5022695;28;20026;-73
2021/01/12 00:38:05;;;;;;;;;;;;;;;;;;;;;
2021/01/12 00:40:36;;;;;;;6.38;4.07;;;12.90;68.70;;;;;;5025710;28;20025;-74
2021/01/12 00:43:23;;;;;;;6.47;4.18;;;12.90;68.80;;;;;;5023578;28;20652;-74
2021/01/12 00:46:01;;;;;;;6.22;4.05;;;12.90;68.80;;;;;;5008094;28;20546;-73
2021/01/12 00:48:52;;;;;;;5.88;3.83;;;12.90;68.80;;;;;;5028257;28;20033;-74
2021/01/12 00:51:38;;;;;;;5.82;3.63;;;12.90;68.80;;;;;;5008316;28;20036;-74
2021/01/12 00:54:23;;;;;;;6.28;4.35;;;12.90;68.80;;;;;;5030225;28;20711;-73
2021/01/12 00:57:12;;;;;;;6.95;3.70;;;12.90;68.80;;;;;;5007469;28;20033;-74
2021/01/12 00:59:59;;;;;;;7.63;4.75;;;12.90;68.80;;;;;;5003940;28;20052;-74
2021/01/12 01:02:30;;;;;;;5.43;3.88;;;12.90;68.80;;;;;;5026489;28;20037;-74
2021/01/12 01:05:01;;;;;;;6.00;3.83;;;12.90;68.70;;;;;;5005634;28;20120;-74
2021/01/12 01:07:41;;;;;;;6.07;3.70;;;12.90;68.70;;;;;;5007667;28;20865;-73
2021/01/12 01:10:11;;;;;;;5.78;4.03;;;12.90;68.80;;;;;;5023905;28;20049;-74
2021/01/12 01:12:49;;;;;;;7.07;4.05;;;12.80;68.70;;;;;;5011424;28;20068;-74
2021/01/12 01:15:47;;;;;;;6.07;3.78;;;12.90;68.80;;;;;;5007112;28;20033;-74
2021/01/12 01:18:28;;;;;;;5.45;3.75;;;12.80;68.70;;;;;;5020674;28;20083;-74
2021/01/12 01:21:16;;;;;;;5.35;3.40;;;12.90;68.50;;;;;;5018277;28;20036;-73
2021/01/12 01:23:48;;;;;;;6.45;4.10;;;12.90;68.50;;;;;;5027839;28;20034;-74
2021/01/12 01:26:22;;;;;;;6.85;3.90;;;12.90;68.60;;;;;;5009738;28;20417;-76
2021/01/12 01:29:25;;;;;;;5.80;3.78;;;12.90;68.60;;;;;;5009257;28;20037;-74
2021/01/12 01:32:04;;;;;;;5.75;3.63;;;12.80;68.60;;;;;;5027842;28;20032;-74
2021/01/12 01:34:44;;;;;;;5.72;3.88;;;12.90;68.60;;;;;;5025560;28;20036;-73
2021/01/12 01:37:32;;;;;;;6.90;3.97;;;12.90;68.50;;;;;;5025894;28;20022;-73
2021/01/12 01:40:12;;;;;;;5.32;3.67;;;12.90;68.60;;;;;;5018399;28;20025;-74
2021/01/12 01:42:48;;;;;;;5.22;3.60;;;12.80;68.50;;;;;;5011146;28;20046;-74
2021/01/12 01:45:29;;;;;;;5.65;3.67;;;12.90;68.50;;;;;;5020190;28;20083;-74
2021/01/12 01:48:09;;;;;;;5.35;3.58;;;12.80;68.50;;;;;;5030582;28;20048;-74
2021/01/12 01:50:49;;;;;;;5.05;3.63;;;12.90;68.40;;;;;;5006872;28;20029;-74
2021/01/12 01:53:30;;;;;;;6.65;3.88;;;12.80;68.40;;;;;;5005625;28;20041;-74
2021/01/12 01:56:21;;;;;;;6.55;3.97;;;12.80;68.40;;;;;;5004476;28;20029;-73
2021/01/12 01:58:51;;;;;;;4.85;3.35;;;12.90;68.30;;;;;;5009158;28;20099;-74
2021/01/12 02:01:28;;;;;;;6.88;4.30;;;12.90;68.40;;;;;;5024928;28;20025;-74
2021/01/12 02:04:26;;;;;;;6.55;4.05;;;12.90;68.30;;;;;;5009266;28;20034;-74
2021/01/12 02:07:02;;;;;;;5.63;3.60;;;12.90;68.40;;;;;;5010242;28;20037;-74
2021/01/12 02:09:51;;;;;;;7.72;4.00;;;12.90;68.30;;;;;;5005186;28;20092;-74
2021/01/12 02:12:40;;;;;;;6.90;4.20;;;12.90;68.30;;;;;;5018307;28;20033;-74
2021/01/12 02:15:25;;;;;;;6.00;3.97;;;12.90;68.40;;;;;;5009630;28;20120;-74
2021/01/12 02:18:06;;;;;;;4.72;3.30;;;12.90;68.20;;;;;;5010550;28;20033;-74
2021/01/12 02:20:39;;;;;;;5.45;3.58;;;12.80;68.20;;;;;;5007579;28;20199;-74
2021/01/12 02:23:38;;;;;;;7.35;4.00;;;12.80;68.20;;;;;;5022170;28;20034;-73
2021/01/12 02:26:17;;;;;;;4.88;3.65;;;12.80;68.30;;;;;;5006781;28;20133;-74
2021/01/12 02:28:54;;;;;;;5.68;3.58;;;12.80;68.20;;;;;;5012172;28;20655;-74
2021/01/12 02:31:32;;;;;;;6.30;3.47;;;12.80;68.30;;;;;;5009799;28;20472;-74
2021/01/12 02:34:20;;;;;;;7.10;4.00;;;12.90;68.20;;;;;;5010260;28;20029;-74
2021/01/12 02:37:01;;;;;;;5.43;3.70;;;12.90;68.10;;;;;;5008413;28;20057;-74
2021/01/12 02:39:41;;;;;;;4.97;3.67;;;12.80;68.10;;;;;;5009278;28;20034;-74
2021/01/12 02:42:25;;;;;;;6.75;3.70;;;12.90;68.10;;;;;;5007122;28;20026;-73
2021/01/12 02:44:56;;;;;;;5.25;3.30;;;12.80;68.20;;;;;;5011022;28;20128;-75
2021/01/12 02:47:37;;;;;;;5.07;3.70;;;12.90;68.10;;;;;;5007001;28;20077;-74
2021/01/12 02:50:11;;;;;;;6.10;3.90;;;12.80;68.00;;;;;;4992386;28;20025;-74
2021/01/12 02:52:52;;;;;;;6.00;4.18;;;12.80;68.10;;;;;;4993027;28;20038;-74
2021/01/12 02:56:03;;;;;;;;;;;;;;;;;;;;;
2021/01/12 02:58:27;;;;;;;4.68;3.03;;;12.90;67.90;;;;;;5003116;28;20120;-74
2021/01/12 03:01:25;;;;;;;5.78;3.80;;;12.80;67.90;;;;;;4984644;28;20517;-74
2021/01/12 03:04:04;;;;;;;5.68;3.92;;;12.90;68.00;;;;;;5002260;28;20045;-73
2021/01/12 03:06:43;;;;;;;5.50;3.97;;;12.80;67.90;;;;;;4992426;28;20041;-73
2021/01/12 03:09:13;;;;;;;5.22;3.70;;;12.90;68.00;;;;;;4994306;28;20026;-73
2021/01/12 03:12:14;;;;;;;5.30;3.25;;;12.90;68.00;;;;;;5007464;28;20030;-74
2021/01/12 03:14:51;;;;;;;5.53;3.30;;;12.90;67.90;;;;;;4995327;28;20073;-74
2021/01/12 03:17:24;;;;;;;5.63;3.60;;;12.80;67.90;;;;;;4991935;28;20631;-74
2021/01/12 03:20:03;;;;;;;4.63;3.38;;;12.80;67.90;;;;;;4988972;28;20549;-74
2021/01/12 03:22:42;;;;;;;5.88;3.80;;;12.90;67.90;;;;;;4990039;28;20057;-74
2021/01/12 03:25:17;;;;;;;4.22;2.97;;;12.80;67.90;;;;;;5003625;28;20049;-74
2021/01/12 03:27:58;;;;;;;3.75;3.10;;;12.80;67.90;;;;;;5006736;28;20030;-74
2021/01/12 03:30:36;;;;;;;5.88;3.80;;;12.80;67.90;;;;;;4981234;28;20443;-74
2021/01/12 03:33:25;;;;;;;5.65;3.45;;;12.80;67.90;;;;;;4999918;28;20060;-73
2021/01/12 03:36:16;;;;;;;4.95;3.13;;;12.90;67.80;;;;;;4992602;28;20026;-73
2021/01/12 03:39:05;;;;;;;5.00;3.38;;;12.90;67.80;;;;;;5007891;28;20037;-73
2021/01/12 03:41:43;;;;;;;4.97;3.53;;;12.80;67.80;;;;;;5003959;28;20065;-73
2021/01/12 03:44:21;;;;;;;5.57;3.33;;;12.80;67.90;;;;;;5006019;28;20038;-73
2021/01/12 03:47:00;;;;;;;6.78;3.28;;;12.90;67.80;;;;;;4997807;28;20073;-73
2021/01/12 03:49:40;;;;;;;4.80;3.30;;;12.80;67.80;;;;;;5025607;28;20108;-73
2021/01/12 03:52:20;;;;;;;4.55;3.10;;;12.80;67.70;;;;;;5024387;28;20026;-73
2021/01/12 03:54:58;;;;;;;5.32;2.90;;;12.80;67.80;;;;;;5023640;28;20038;-74
2021/01/12 03:57:38;;;;;;;4.85;3.10;;;12.80;67.80;;;;;;5010822;28;20068;-73
2021/01/12 04:00:10;;;;;;;4.45;3.13;;;12.80;67.70;;;;;;5025455;28;20032;-74
2021/01/12 04:02:51;;;;;;;4.68;2.92;;;12.80;67.80;;;;;;5011195;28;20033;-73
2021/01/12 04:05:52;;;;;;;;;;;;;;;;;;;;;
2021/01/12 04:08:33;;;;;;;5.90;3.33;;;12.80;67.70;;;;;;5024548;28;20032;-74
2021/01/12 04:11:35;;;;;;;4.47;2.83;;;12.80;67.60;;;;;;5019684;28;20109;-73
2021/01/12 04:14:09;;;;;;;5.47;3.67;;;12.80;67.70;;;;;;5026960;28;20028;-73
2021/01/12 04:16:40;;;;;;;4.00;3.03;;;12.80;67.60;;;;;;5029278;28;20059;-73
2021/01/12 04:19:21;;;;;;;5.57;3.28;;;12.80;67.60;;;;;;5021631;28;20111;-74
2021/01/12 04:22:02;;;;;;;4.55;3.20;;;12.80;67.70;;;;;;5010062;28;20625;-73
2021/01/12 04:24:32;;;;;;;4.03;2.50;;;12.80;67.70;;;;;;5021194;28;20037;-73
2021/01/12 04:27:10;;;;;;;5.50;3.47;;;12.80;67.50;;;;;;5023524;28;20038;-73
2021/01/12 04:29:57;;;;;;;5.43;3.33;;;12.80;67.60;;;;;;5008173;28;20037;-74
2021/01/12 04:32:27;;;;;;;5.90;3.78;;;12.80;67.50;;;;;;5008662;28;20045;-73
2021/01/12 04:35:27;;;;;;;4.50;3.35;;;12.80;67.50;;;;;;5027381;28;20033;-74
2021/01/12 04:38:07;;;;;;;4.78;3.30;;;12.80;67.50;;;;;;5011675;28;20025;-74
2021/01/12 04:40:49;;;;;;;4.75;3.80;;;12.80;67.40;;;;;;5002893;28;20038;-73
2021/01/12 04:43:21;;;;;;;4.00;2.67;;;12.80;67.50;;;;;;5001654;28;20075;-74
2021/01/12 04:46:02;;;;;;;4.47;3.17;;;12.80;67.50;;;;;;5008691;28;20029;-74
2021/01/12 04:48:47;;;;;;;4.72;3.22;;;12.80;67.40;;;;;;5006213;28;20132;-73
2021/01/12 04:51:20;;;;;;;4.40;3.10;;;12.80;67.50;;;;;;5008564;28;20052;-74
2021/01/12 04:54:06;;;;;;;5.68;3.70;;;12.80;67.50;;;;;;5008789;28;20040;-75
2021/01/12 04:56:49;;;;;;;6.65;4.40;;;12.80;67.40;;;;;;5026593;28;20037;-74
2021/01/12 04:59:34;;;;;;;5.13;3.47;;;12.80;67.40;;;;;;5026225;28;20033;-76
2021/01/12 05:02:22;;;;;;;5.75;3.20;;;12.80;67.40;;;;;;5004155;28;20114;-74
2021/01/12 05:04:57;;;;;;;4.90;3.63;;;12.80;67.40;;;;;;5007873;28;20546;-75
2021/01/12 05:07:51;;;;;;;4.88;3.08;;;12.80;67.30;;;;;;5012909;28;20041;-74
2021/01/12 05:10:33;;;;;;;5.60;3.22;;;12.80;67.40;;;;;;5026666;28;20111;-75
2021/01/12 05:13:19;;;;;;;5.35;3.30;;;12.80;67.30;;;;;;5018153;28;20029;-73
2021/01/12 05:15:59;;;;;;;5.72;3.45;;;12.80;67.40;;;;;;5004013;28;20025;-74
2021/01/12 05:18:49;;;;;;;5.03;3.05;;;12.80;67.30;;;;;;5009926;28;20040;-74
2021/01/12 05:21:19;;;;;;;4.65;3.05;;;12.80;67.40;;;;;;5010155;28;20056;-74
2021/01/12 05:24:08;;;;;;;4.25;3.10;;;12.80;67.30;;;;;;5010114;28;20083;-74
2021/01/12 05:26:38;;;;;;;4.80;3.30;;;12.80;67.30;;;;;;5010762;28;20028;-74
2021/01/12 05:29:09;;;;;;;4.47;2.92;;;12.80;67.30;;;;;;5010640;28;20059;-74
2021/01/12 05:32:03;;;;;;;6.82;3.25;;;12.80;67.30;;;;;;5012751;28;20525;-74
2021/01/12 05:34:43;;;;;;;5.90;2.90;;;12.80;67.30;;;;;;5004438;28;20057;-74
2021/01/12 05:37:14;;;;;;;4.45;2.97;;;12.80;67.30;;;;;;5021270;28;20025;-74
2021/01/12 05:40:05;;;;;;;4.75;2.83;;;12.80;67.30;;;;;;5022471;28;20032;-74
2021/01/12 05:43:01;;;;;;;3.72;2.63;;;12.80;67.20;;;;;;5020610;28;20037;-74
2021/01/12 05:45:36;;;;;;;4.03;3.30;;;12.80;67.30;;;;;;5026171;28;20026;-74
2021/01/12 05:48:14;;;;;;;4.75;3.35;;;12.80;67.30;;;;;;5006820;28;20045;-74
2021/01/12 05:50:57;;;;;;;3.45;2.92;;;12.80;67.20;;;;;;5009068;28;20030;-74
2021/01/12 05:53:49;;;;;;;4.93;3.35;;;12.80;67.30;;;;;;5010016;28;20060;-74
2021/01/12 05:56:25;;;;;;;5.00;3.10;;;12.80;67.30;;;;;;5011911;28;20030;-74
2021/01/12 05:58:58;;;;;;;6.28;3.40;;;12.80;67.40;;;;;;5006498;28;20112;-74
2021/01/12 06:02:02;;;;;;;3.70;2.78;;;12.80;67.30;;;;;;5010208;28;20461;-74
2021/01/12 06:04:33;;;;;;;5.40;2.90;;;12.80;67.10;;;;;;5022866;28;20516;-74
2021/01/12 06:07:04;;;;;;;4.80;3.30;;;12.90;67.20;;;;;;5018874;28;20454;-74
2021/01/12 06:09:36;;;;;;;5.38;3.38;;;12.80;67.20;;;;;;5010540;28;20509;-74
2021/01/12 06:12:37;;;;;;;4.13;3.00;;;12.80;67.30;;;;;;5008143;28;20026;-75
2021/01/12 06:15:34;;;;;;;4.55;2.80;;;12.80;67.20;;;;;;5000538;28;20037;-75
2021/01/12 06:18:20;;;;;;;4.32;3.13;;;12.80;67.20;;;;;;5008428;28;20078;-74
2021/01/12 06:21:12;;;;;;;5.55;3.03;;;12.80;67.10;;;;;;5004794;28;20119;-75
2021/01/12 06:24:00;;;;;;;5.25;3.67;;;12.80;67.20;;;;;;5008883;28;20116;-74
2021/01/12 06:26:40;;;;;;;4.45;3.03;;;12.80;67.20;;;;;;5006037;28;20043;-74
2021/01/12 06:29:12;;;;;;;4.63;2.58;;;12.80;67.20;;;;;;5007246;28;20124;-74
2021/01/12 06:31:46;;;;;;;5.20;2.75;;;12.80;67.20;;;;;;5003785;28;20033;-74
2021/01/12 06:34:19;;;;;;;7.20;3.20;;;12.80;67.20;;;;;;5001556;28;20025;-75
2021/01/12 06:36:55;;;;;;;3.97;2.85;;;12.80;67.20;;;;;;5025081;28;20103;-74
2021/01/12 06:39:40;;;;;;;11.52;3.80;;;12.80;67.20;;;;;;5003588;28;20036;-74
2021/01/12 06:42:19;;;;;;;5.03;2.97;;;12.80;67.20;;;;;;5003869;28;20033;-74
2021/01/12 06:44:51;;;;;;;3.97;2.75;;;12.80;67.10;;;;;;5024624;28;20140;-74
2021/01/12 06:47:23;;;;;;;3.10;2.45;;;12.80;67.10;;;;;;5004346;28;20050;-75
2021/01/12 06:49:52;;;;;;;4.72;3.13;;;12.80;67.00;;;;;;5008385;28;20025;-74
2021/01/12 06:52:17;;;;;;;3.50;2.70;;;12.80;67.10;;;;;;5009844;28;20026;-74
2021/01/12 06:54:47;;;;;;;3.95;2.78;;;12.80;67.00;;;;;;5009135;28;20650;-74
2021/01/12 06:57:14;;;;;;;3.72;2.92;;;12.80;67.00;;;;;;5022642;28;20382;-74
2021/01/12 07:00:09;;;;;;;3.63;2.65;;;12.80;67.00;;;;;;5026255;28;20030;-74
2021/01/12 07:02:35;;;;;;;5.10;2.85;;;12.80;67.00;;;;;;5013351;28;20036;-74
2021/01/12 07:05:07;;;;;;;3.35;2.40;;;12.80;67.00;;;;;;5004372;28;20022;-74
2021/01/12 07:07:50;;;;;;;3.25;2.58;;;12.80;66.90;;;;;;5027869;28;20105;-74
2021/01/12 07:10:32;;;;;;;4.72;2.88;;;12.80;66.90;;;;;;5004695;28;20034;-73
2021/01/12 07:13:06;;;;;;;4.82;2.70;;;12.80;66.90;;;;;;5012172;28;20033;-73
2021/01/12 07:15:41;;;;;;;7.47;3.05;;;12.80;66.90;;;;;;5025730;28;20085;-74
2021/01/12 07:18:10;;;;;;;3.45;2.50;;;12.80;66.70;;;;;;5028362;28;20021;-73
2021/01/12 07:20:52;;;;;;;4.82;3.42;;;12.80;66.80;;;;;;5031509;28;20041;-74
2021/01/12 07:23:23;;;;;;;4.38;2.95;;;12.80;66.90;;;;;;5025883;28;20636;-74
2021/01/12 07:25:49;;;;;;;4.50;2.92;;;12.80;66.70;;;;;;5031585;28;20037;-74
2021/01/12 07:28:19;;;;;;;3.17;2.63;;;12.80;66.70;;;;;;5009558;28;20026;-74
2021/01/12 07:30:47;;;;;;;4.43;2.70;;;12.80;66.60;;;;;;5028149;28;20026;-73
2021/01/12 07:33:21;;;;;;;3.97;2.33;;;12.80;66.80;;;;;;5003745;28;20438;-74
2021/01/12 07:35:55;;;;;;;3.72;2.22;;;12.90;66.60;;;;;;5012978;28;20026;-74
2021/01/12 07:38:25;;;;;;;3.67;2.55;;;12.80;66.60;;;;;;5008942;28;20036;-75
2021/01/12 07:40:56;;;;;;;3.38;2.47;;;12.90;66.60;;;;;;5024569;28;20478;-75
2021/01/12 07:43:23;;;;;;;4.22;2.88;;;12.90;66.50;;;;;;5011475;28;20045;-75
2021/01/12 07:45:58;;;;;;;3.97;2.77;;;12.90;66.50;;;;;;5011380;28;20021;-75
2021/01/12 07:48:24;;;;;;;3.80;2.53;;;12.80;66.50;;;;;;5009452;28;20038;-74
2021/01/12 07:50:54;;;;;;;4.38;3.17;;;12.90;66.50;;;;;;5009105;28;20637;-74
2021/01/12 07:53:23;;;;;;;3.90;2.70;;;12.90;66.50;;;;;;4988037;28;20042;-74
2021/01/12 07:55:49;;;;;;;5.57;2.53;;;12.90;66.50;;;;;;4988853;28;20027;-74
2021/01/12 07:58:18;;;;;;;4.38;2.72;;;12.90;66.40;;;;;;4987583;28;20541;-74
2021/01/12 08:01:03;;;;;;;;;;;12.90;66.40;;;;;;4998256;28;20022;-74
2021/01/12 08:03:32;;;;;;;4.50;2.65;;;12.90;66.40;;;;;;4989008;28;19928;-74
2021/01/12 08:06:00;;;;;;;;;;;12.90;66.30;;;;;;5002938;28;20105;-74
2021/01/12 08:08:32;;;;;;;3.67;2.50;;;13.00;66.30;;;;;;4990744;28;19969;-74
2021/01/12 08:11:04;;;;;;;4.85;2.70;;;12.90;66.20;;;;;;4995671;28;20030;-74
2021/01/12 08:13:44;;;;;;;3.80;2.53;;;12.90;66.30;;;;;;4977487;28;20117;-74
2021/01/12 08:16:15;;;;;;;5.30;2.83;;;13.00;66.30;;;;;;5005417;28;20022;-75
2021/01/12 08:18:52;;;;;;;4.45;3.05;;;13.00;66.30;;;;;;4987601;28;20373;-76
2021/01/12 08:21:30;;;;;;;3.05;2.25;;;12.90;66.10;;;;;;4990400;28;20037;-76
2021/01/12 08:24:06;;;;;;;3.75;3.20;;;13.00;66.20;;;;;;4991442;28;20038;-74
2021/01/12 08:26:32;;;;;;;3.63;2.40;;;12.90;66.20;;;;;;4992106;28;20038;-75
2021/01/12 08:28:59;;;;;;;3.17;2.25;;;13.00;66.20;;;;;;5009892;28;20099;-75
2021/01/12 08:31:29;;;;;;;3.60;2.55;;;13.00;66.10;;;;;;4992666;28;20030;-74
2021/01/12 08:33:59;;;;;;;4.07;2.83;;;13.00;66.10;;;;;;5008206;28;20026;-74
2021/01/12 08:36:31;;;;;;;3.10;2.30;;;13.00;66.30;;;;;;5000656;28;20577;-75
2021/01/12 08:39:09;;;;;;;3.13;2.38;;;13.00;66.20;;;;;;4996069;28;20522;-74
2021/01/12 08:41:39;;;;;;;;;;;13.00;66.20;;;;;;5012761;28;20036;-74
2021/01/12 08:44:08;;;;;;;3.53;2.30;;;13.00;66.20;;;;;;5007207;28;20036;-74
2021/01/12 08:46:43;;;;;;;5.47;2.42;;;13.00;66.10;;;;;;4999879;28;20068;-74
2021/01/12 08:49:14;;;;;;;3.45;2.47;;;13.00;66.20;;;;;;5005539;28;20037;-74
2021/01/12 08:51:41;;;;;;;2.92;2.15;;;13.00;66.10;;;;;;5025741;28;20121;-75
2021/01/12 08:54:23;;;;;;;4.05;2.72;;;13.00;66.00;;;;;;5011218;28;20021;-75
2021/01/12 08:57:00;;;;;;;4.82;2.40;;;13.00;66.00;;;;;;5007720;28;20385;-74
2021/01/12 08:59:37;;;;;;;3.60;2.45;;;13.10;65.70;;;;;;5007558;28;20031;-74
2021/01/12 09:02:20;;;;;;;5.37;2.67;;;13.10;66.00;;;;;;5005642;28;20529;-74
2021/01/12 09:05:07;;;;;;;4.18;2.63;;;13.10;66.00;;;;;;5009587;28;20065;-74
2021/01/12 09:07:39;;;;;;;3.53;2.28;;;13.10;66.00;;;;;;5009541;28;20025;-75
2021/01/12 09:10:09;;;;;;;4.07;2.60;;;13.10;66.00;;;;;;5006016;28;20502;-75
2021/01/12 09:12:41;;;;;;;3.90;2.60;;;13.10;66.10;;;;;;5025400;28;20069;-74
2021/01/12 09:15:07;;;;;;;2.63;1.90;;;13.10;66.00;;;;;;5009650;28;20025;-75
2021/01/12 09:17:41;;;;;;;3.72;2.88;;;13.10;66.00;;;;;;5009162;28;20025;-74
2021/01/12 09:20:11;;;;;;;2.60;2.05;;;13.10;66.00;;;;;;5004839;28;20121;-74
2021/01/12 09:22:50;;;;;;;2.58;1.90;;;13.10;66.00;;;;;;5010272;28;20033;-75
2021/01/12 09:25:24;;;;;;;3.28;2.15;;;13.10;66.00;;;;;;5009773;28;20029;-75
2021/01/12 09:27:54;;;;;;;2.90;2.00;;;13.10;65.90;;;;;;5027472;28;20489;-74
2021/01/12 09:30:26;;;;;;;2.50;2.00;;;13.10;65.90;;;;;;5011422;28;20022;-75
2021/01/12 09:33:05;;;;;;;3.70;2.22;;;13.10;65.90;;;;;;5008891;28;20022;-75
2021/01/12 09:35:41;;;;;;;4.03;2.53;;;13.10;66.00;;;;;;5000766;28;20026;-75
2021/01/12 09:38:11;;;;;;;3.10;2.50;;;13.10;65.90;;;;;;5017188;28;20055;-74
2021/01/12 09:40:40;;;;;;;3.97;2.78;;;13.10;65.90;;;;;;5008678;28;20025;-74
2021/01/12 09:43:10;;;;;;;2.00;1.50;;;13.10;65.80;;;;;;5004979;28;20108;-74
2021/01/12 09:45:44;;;;;;;3.05;1.98;;;13.10;65.90;;;;;;5003895;28;20030;-75
2021/01/12 09:48:16;;;;;;;3.25;2.20;;;13.10;65.80;;;;;;5010495;28;20080;-74
2021/01/12 09:50:41;;;;;;;2.97;2.15;;;13.10;65.80;;;;;;5025475;28;20052;-74
2021/01/12 09:53:15;;;;;;;3.15;2.42;;;13.10;65.80;;;;;;5014926;28;20033;-74
2021/01/12 09:55:58;;;;;;;5.40;2.58;;;13.20;65.80;;;;;;5009210;28;20395;-74
2021/01/12 09:58:24;;;;;;;2.88;2.05;;;13.20;65.70;;;;;;5005941;28;20033;-74
2021/01/12 10:00:50;;;;;;;2.97;2.17;;;13.20;65.70;;;;;;5024336;28;20028;-74
2021/01/12 10:03:19;;;;;;;3.20;2.28;;;13.20;65.60;;;;;;5027232;28;20033;-74
2021/01/12 10:05:49;;;;;;;2.53;2.00;;;13.20;65.60;;;;;;5005594;28;20099;-74
2021/01/12 10:08:31;;;;;;;4.88;2.25;;;13.20;65.50;;;;;;5008080;28;20743;-74
2021/01/12 10:11:09;;;;;;;3.22;2.20;;;13.20;65.50;;;;;;4994085;28;20033;-74
2021/01/12 10:13:35;;;;;;;3.25;2.22;;;13.20;65.50;;;;;;5006725;28;20034;-74
2021/01/12 10:16:07;;;;;;;2.42;2.00;;;13.20;65.40;;;;;;5009931;28;20028;-74
2021/01/12 10:18:34;;;;;;;2.47;1.80;;;13.20;65.50;;;;;;5008708;28;20030;-75
2021/01/12 10:21:05;;;;;;;4.10;2.63;;;13.20;65.50;;;;;;5008585;28;20721;-75
2021/01/12 10:23:35;;;;;;;3.72;2.20;;;13.20;65.50;;;;;;5003600;28;20487;-75
2021/01/12 10:26:01;;;;;;;2.70;2.00;;;13.20;65.50;;;;;;5006616;28;20116;-74
2021/01/12 10:28:31;;;;;;;3.08;2.17;;;13.20;65.50;;;;;;5000957;28;20124;-74
2021/01/12 10:31:02;;;;;;;3.13;1.83;;;13.20;65.50;;;;;;5006292;28;20021;-74
2021/01/12 10:33:33;;;;;;;2.60;1.75;;;13.30;65.40;;;;;;5009412;28;20034;-74
2021/01/12 10:36:04;;;;;;;3.35;2.17;;;13.30;65.40;;;;;;5006016;28;20055;-74
2021/01/12 10:38:34;;;;;;;2.90;2.00;;;13.30;65.40;;;;;;5005874;28;20030;-74
2021/01/12 10:41:06;;;;;;;7.50;2.05;;;13.20;65.50;;;;;;5025929;28;20071;-74
2021/01/12 10:43:36;;;;;;;3.88;2.05;;;13.20;65.50;;;;;;5020769;28;20038;-74
2021/01/12 10:46:03;;;;;;;2.90;2.10;;;13.20;65.50;;;;;;5007687;28;20026;-74
2021/01/12 10:48:33;;;;;;;4.13;1.80;;;13.20;65.50;;;;;;5009165;28;20635;-74
2021/01/12 10:51:04;;;;;;;1.98;1.50;;;13.30;65.60;;;;;;5019649;28;20041;-74
2021/01/12 10:53:42;;;;;;;3.20;2.10;;;13.30;65.50;;;;;;5012522;28;20041;-74
2021/01/12 10:56:17;;;;;;;3.53;2.00;;;13.20;65.50;;;;;;5013316;28;20029;-73
2021/01/12 10:58:47;;;;;;;2.97;2.13;;;13.20;65.50;;;;;;5022841;28;20064;-74
2021/01/12 11:01:15;;;;;;;2.78;1.60;;;13.20;65.50;;;;;;5026895;28;20032;-74
2021/01/12 11:03:55;;;;;;;2.75;1.92;;;13.20;65.50;;;;;;5009077;28;20112;-74
2021/01/12 11:06:32;;;;;;;1.75;1.50;;;13.20;65.50;;;;;;5027940;28;20624;-74
2021/01/12 11:09:00;;;;;;;2.30;1.65;;;13.20;65.50;;;;;;5006547;28;20166;-74
2021/01/12 11:11:34;;;;;;;3.85;2.25;;;13.20;65.50;;;;;;5025779;28;20075;-74
2021/01/12 11:14:06;;;;;;;2.55;1.80;;;13.20;65.50;;;;;;5005406;28;20034;-75
2021/01/12 11:16:41;;;;;;;3.35;1.60;;;13.20;65.50;;;;;;5010386;28;20033;-73
2021/01/12 11:19:10;;;;;;;2.67;1.98;;;13.20;65.50;;;;;;5026829;28;20620;-74
2021/01/12 11:21:50;;;;;;;2.15;1.52;;;13.20;65.50;;;;;;5029980;28;20076;-74
2021/01/12 11:24:20;;;;;;;2.22;1.73;;;13.20;65.40;;;;;;5005483;28;20097;-74
2021/01/12 11:26:47;;;;;;;2.03;1.70;;;13.20;65.50;;;;;;5010434;28;20028;-74
2021/01/12 11:29:19;;;;;;;2.35;2.00;;;13.30;65.40;;;;;;5030339;28;20056;-74
2021/01/12 11:31:57;;;;;;;1.92;1.55;;;13.20;65.40;;;;;;5029556;28;20116;-74
2021/01/12 11:34:28;;;;;;;2.08;1.55;;;13.20;65.40;;;;;;4993061;28;20080;-74
2021/01/12 11:37:19;;;;;;;2.53;1.60;;;13.30;65.40;;;;;;5021238;28;20013;-74
2021/01/12 11:39:49;;;;;;;3.67;1.92;;;13.30;65.40;;;;;;5021215;28;20552;-74
2021/01/12 11:42:32;;;;;;;4.28;1.77;;;13.30;65.40;;;;;;5014937;28;20731;-74
2021/01/12 11:45:03;;;;;;;2.38;1.65;;;13.30;65.30;;;;;;5004620;28;20033;-74
2021/01/12 11:47:41;;;;;;;2.15;1.55;;;13.30;65.30;;;;;;5007413;28;20053;-74
2021/01/12 11:50:12;;;;;;;2.20;1.58;;;13.30;65.30;;;;;;5022231;28;20022;-74
2021/01/12 11:52:38;;;;;;;4.45;1.30;;;13.30;65.30;;;;;;5010016;28;20112;-77
2021/01/12 11:55:19;;;;;;;2.25;1.60;;;13.30;64.50;;;;;;5028019;28;20030;-74
2021/01/12 11:57:49;;;;;;;7.45;1.40;;;13.30;64.60;;;;;;5020899;28;20021;-73
2021/01/12 12:00:20;;;;;;;1.35;1.23;;;13.50;64.50;;;;;;5008506;28;20104;-74
2021/01/12 12:02:46;;;;;;;2.05;1.40;;;13.80;64.20;;;;;;5027828;28;20029;-75
2021/01/12 12:05:16;;;;;;;4.03;1.70;;;14.00;64.00;;;;;;5012017;28;20027;-75
2021/01/12 12:07:47;;;;;;;2.00;1.73;;;14.20;63.60;;;;;;5012138;28;20033;-74
2021/01/12 12:10:20;;;;;;;4.32;1.73;;;14.50;63.10;;;;;;5016137;28;20029;-74
2021/01/12 12:12:51;;;;;;;3.50;2.38;;;14.70;63.20;;;;;;5008682;28;20034;-75
2021/01/12 12:15:17;;;;;;;4.22;1.88;;;14.90;63.70;;;;;;5013323;28;20150;-75
2021/01/12 12:17:57;;;;;;;3.25;2.30;;;15.10;63.90;;;;;;5028891;28;20032;-76
2021/01/12 12:20:29;;;;;;;5.38;2.00;;;15.30;65.30;;;;;;5027269;28;20049;-74
2021/01/12 12:23:00;;;;;;;8.32;2.33;;;15.40;67.10;;;;;;5007113;28;20033;-74
2021/01/12 12:25:40;;;;;;;;;;;;;;;;;;;;;
2021/01/12 12:28:11;;;;;;;3.95;2.20;;;15.60;69.30;;;;;;5021985;28;20028;-74
2021/01/12 12:30:47;;;;;;;5.55;2.55;;;15.70;71.10;;;;;;5007719;28;20120;-75
2021/01/12 12:33:16;;;;;;;6.05;2.53;;;15.80;73.00;;;;;;5020287;28;20029;-75
2021/01/12 12:35:46;;;;;;;4.22;2.30;;;15.80;74.30;;;;;;5031181;28;20017;-75
2021/01/12 12:38:17;;;;;;;5.22;2.65;;;15.80;75.40;;;;;;5027676;28;20025;-76
2021/01/12 12:40:45;;;;;;;9.15;2.03;;;15.80;74.00;;;;;;5031477;28;20024;-76
2021/01/12 12:43:11;;;;;;;3.08;1.73;;;15.80;71.70;;;;;;5029273;28;20041;-75
2021/01/12 12:45:42;;;;;;;4.63;1.88;;;15.80;70.90;;;;;;5012055;28;20040;-75
2021/01/12 12:48:13;;;;;;;5.72;1.88;;;15.70;70.40;;;;;;5016668;28;20041;-76
2021/01/12 12:50:39;;;;;;;4.22;1.73;;;15.70;70.60;;;;;;5010669;28;20029;-75
2021/01/12 12:53:11;;;;;;;3.50;2.15;;;15.70;70.50;;;;;;5029711;28;20048;-76
2021/01/12 12:55:41;;;;;;;4.40;1.48;;;15.70;70.80;;;;;;5026744;28;20116;-75
2021/01/12 12:58:11;;;;;;;3.20;1.30;;;15.30;64.30;;;;;;5008351;28;20025;-74
2021/01/12 13:00:43;;;;;;;3.90;1.20;;;15.10;66.30;;;;;;5029474;28;20029;-71
2021/01/12 13:03:09;;;;;;;5.75;1.38;;;15.10;66.90;;;;;;5008145;28;20030;-74
2021/01/12 13:05:38;;;;;;;3.78;1.40;;;15.10;67.30;;;;;;5011306;28;20044;-72
2021/01/12 13:08:17;;;;;;;4.07;1.15;;;15.10;67.40;;;;;;5009801;28;20025;-73
2021/01/12 13:10:49;;;;;;;5.75;1.27;;;15.10;67.50;;;;;;5006814;28;20099;-73
2021/01/12 13:13:20;;;;;;;3.20;1.33;;;15.10;67.60;;;;;;5027723;28;20034;-73
2021/01/12 13:15:58;;;;;;;1.50;1.40;;;15.10;67.50;;;;;;5025108;28;20030;-73
2021/01/12 13:18:27;;;;;;;2.20;1.40;;;15.00;67.50;;;;;;5023027;28;20030;-73
2021/01/12 13:20:57;;;;;;;;;;;15.10;67.50;;;;;;5009142;28;20025;-73
2021/01/12 13:23:37;;;;;;;3.95;2.45;;;15.10;67.40;;;;;;5019745;28;20363;-74
2021/01/12 13:26:06;;;;;;;2.00;1.50;;;15.10;67.40;;;;;;5007959;28;20026;-74
2021/01/12 13:28:44;;;;;;;1.90;1.20;;;15.00;67.30;;;;;;5003174;28;20116;-75
2021/01/12 13:31:15;;;;;;;3.00;1.38;;;15.00;67.30;;;;;;5021351;28;20018;-75
2021/01/12 13:33:45;;;;;;;2.00;1.33;;;15.00;67.30;;;;;;5023572;28;20550;-75
2021/01/12 13:36:44;;;;;;;2.72;1.10;;;15.00;67.30;;;;;;5019905;28;20026;-75
2021/01/12 13:39:10;;;;;;;3.78;1.42;;;14.90;67.20;;;;;;5024548;28;20032;-74
2021/01/12 13:41:40;;;;;;;5.32;1.38;;;14.90;67.20;;;;;;5024981;28;20128;-74